Time;durP1;ratioP1;P1;durP2;ratioP2;P2;SDS_P1;SDS_P2;PMS_P1;PMS_P2;Temp;Humidity;BMP_temperature;BMP_pressure;BME280_temperature;BME280_humidity;BME280_pressure;Samples;Min_cycle;Max_cycle;Signal;HPM_P1;HPM_P2
2024/01/22 00:02:08;;;;;;;14.18;4.13;;;;;;;;;;4983011;28;20037;-62
2024/01/22 00:04:33;;;;;;;14.60;4.50;;;;;;;;;;4992556;28;20018;-63
2024/01/22 00:06:59;;;;;;;13.77;4.43;;;;;;;;;;4981445;28;20198;-63
2024/01/22 00:09:24;;;;;;;16.00;4.70;;;;;;;;;;4986577;28;20400;-62
2024/01/22 00:11:49;;;;;;;14.47;4.53;;;;;;;;;;4982193;28;20261;-63
2024/01/22 00:14:14;;;;;;;13.47;3.97;;;;;;;;;;4978806;28;20259;-63
2024/01/22 00:16:39;;;;;;;17.48;4.78;;;;;;;;;;4979733;28;20022;-62
2024/01/22 00:19:05;;;;;;;16.63;4.00;;;;;;;;;;4976554;28;20035;-64
2024/01/22 00:21:30;;;;;;;12.30;4.22;;;;;;;;;;4985779;28;20014;-62
2024/01/22 00:23:56;;;;;;;13.07;4.10;;;;;;;;;;4994846;28;20509;-62
2024/01/22 00:26:21;;;;;;;13.38;4.15;;;;;;;;;;4999546;28;20019;-64
2024/01/22 00:28:47;;;;;;;17.25;4.47;;;;;;;;;;4991505;28;20382;-64
2024/01/22 00:31:12;;;;;;;15.23;4.20;;;;;;;;;;4998824;28;20018;-64
2024/01/22 00:33:37;;;;;;;13.07;4.37;;;;;;;;;;4997925;28;20333;-64
2024/01/22 00:36:03;;;;;;;11.00;3.33;;;;;;;;;;4988823;28;20760;-63
2024/01/22 00:38:28;;;;;;;14.90;4.10;;;;;;;;;;4988221;28;20040;-64
2024/01/22 00:40:53;;;;;;;12.87;4.37;;;;;;;;;;4986354;28;20103;-64
2024/01/22 00:43:18;;;;;;;15.13;4.43;;;;;;;;;;4997000;28;20371;-64
2024/01/22 00:45:43;;;;;;;13.60;3.70;;;;;;;;;;4977657;28;20112;-64
2024/01/22 00:48:09;;;;;;;15.03;4.03;;;;;;;;;;4975549;28;20042;-64
2024/01/22 00:50:34;;;;;;;14.27;4.30;;;;;;;;;;4979038;28;20054;-64
2024/01/22 00:52:59;;;;;;;14.03;4.27;;;;;;;;;;4976781;28;20348;-64
2024/01/22 00:55:24;;;;;;;14.83;4.00;;;;;;;;;;4987838;28;20268;-64
2024/01/22 00:57:49;;;;;;;11.63;3.20;;;;;;;;;;4998138;28;20046;-63
2024/01/22 01:00:15;;;;;;;12.07;3.50;;;;;;;;;;5000245;28;20022;-63
2024/01/22 01:02:40;;;;;;;15.02;3.88;;;;;;;;;;4985704;28;20177;-63
2024/01/22 01:05:06;;;;;;;11.43;3.67;;;;;;;;;;4991766;28;20084;-63
2024/01/22 01:07:31;;;;;;;12.57;3.55;;;;;;;;;;4994545;28;20021;-64
2024/01/22 01:09:56;;;;;;;11.33;3.50;;;;;;;;;;4989467;28;20033;-63
2024/01/22 01:12:21;;;;;;;12.97;3.40;;;;;;;;;;4984159;28;20029;-64
2024/01/22 01:14:46;;;;;;;11.93;3.27;;;;;;;;;;4983372;28;20764;-64
2024/01/22 01:17:11;;;;;;;10.93;3.10;;;;;;;;;;4988053;28;20018;-63
2024/01/22 01:19:39;;;;;;;13.37;3.83;;;;;;;;;;4990053;28;20320;-63
2024/01/22 01:22:04;;;;;;;14.25;3.70;;;;;;;;;;5000625;28;20273;-64
2024/01/22 01:24:29;;;;;;;13.45;3.85;;;;;;;;;;4997344;28;20028;-64
2024/01/22 01:26:55;;;;;;;13.27;3.40;;;;;;;;;;4995011;28;20064;-64
2024/01/22 01:29:20;;;;;;;12.10;3.70;;;;;;;;;;4996986;28;20029;-64
2024/01/22 01:31:45;;;;;;;12.50;3.53;;;;;;;;;;4990135;28;20018;-64
2024/01/22 01:34:10;;;;;;;12.53;3.40;;;;;;;;;;5000756;28;20409;-63
2024/01/22 01:36:36;;;;;;;10.40;3.40;;;;;;;;;;4994136;28;20265;-63
2024/01/22 01:39:01;;;;;;;11.60;3.07;;;;;;;;;;4999584;28;20014;-64
2024/01/22 01:41:26;;;;;;;12.55;3.30;;;;;;;;;;4997503;28;20761;-64
2024/01/22 01:43:51;;;;;;;11.80;3.53;;;;;;;;;;4994173;28;20026;-64
2024/01/22 01:46:16;;;;;;;9.20;2.97;;;;;;;;;;4998087;28;20340;-63
2024/01/22 01:48:42;;;;;;;10.83;3.40;;;;;;;;;;4986956;28;20057;-63
2024/01/22 01:51:08;;;;;;;12.23;3.40;;;;;;;;;;4997901;28;20335;-63
2024/01/22 01:53:33;;;;;;;13.00;3.40;;;;;;;;;;4991422;28;20072;-64
2024/01/22 01:55:59;;;;;;;9.95;2.83;;;;;;;;;;4989840;28;20064;-64
2024/01/22 01:58:24;;;;;;;11.00;3.13;;;;;;;;;;4994476;28;20026;-63
2024/01/22 02:00:51;;;;;;;8.50;2.80;;;;;;;;;;4995458;28;20044;-63
2024/01/22 02:03:16;;;;;;;9.88;2.80;;;;;;;;;;4986486;28;20050;-63
2024/01/22 02:05:41;;;;;;;9.23;2.73;;;;;;;;;;4989783;28;20050;-63
2024/01/22 02:08:06;;;;;;;12.90;3.20;;;;;;;;;;4991348;28;20327;-62
2024/01/22 02:10:31;;;;;;;9.40;2.80;;;;;;;;;;4988533;28;20324;-64
2024/01/22 02:12:57;;;;;;;13.23;3.30;;;;;;;;;;4983899;28;20027;-63
2024/01/22 02:15:22;;;;;;;11.87;2.77;;;;;;;;;;4983316;28;20371;-62
2024/01/22 02:17:47;;;;;;;9.57;2.90;;;;;;;;;;4988490;28;20280;-62
2024/01/22 02:20:13;;;;;;;10.93;3.17;;;;;;;;;;4992703;28;20324;-62
2024/01/22 02:22:38;;;;;;;9.35;2.83;;;;;;;;;;4999954;28;20469;-63
2024/01/22 02:25:03;;;;;;;10.40;2.80;;;;;;;;;;4993134;28;20049;-62
2024/01/22 02:27:29;;;;;;;6.40;2.55;;;;;;;;;;4989822;28;20357;-62
2024/01/22 02:29:54;;;;;;;8.03;2.70;;;;;;;;;;4989139;28;20463;-63
2024/01/22 02:32:19;;;;;;;9.20;2.53;;;;;;;;;;4989444;28;20282;-63
2024/01/22 02:34:44;;;;;;;8.50;2.75;;;;;;;;;;4988002;28;20018;-64
2024/01/22 02:37:09;;;;;;;9.17;2.57;;;;;;;;;;4989697;28;20029;-65
2024/01/22 02:39:36;;;;;;;8.43;2.80;;;;;;;;;;4999276;28;20323;-64
2024/01/22 02:42:01;;;;;;;8.40;2.80;;;;;;;;;;4987933;28;20294;-63
2024/01/22 02:44:26;;;;;;;8.80;2.63;;;;;;;;;;4993216;28;20037;-64
2024/01/22 02:46:51;;;;;;;9.23;2.35;;;;;;;;;;4987615;28;20101;-63
2024/01/22 02:49:17;;;;;;;9.03;2.80;;;;;;;;;;4982300;28;20041;-63
2024/01/22 02:51:43;;;;;;;6.82;2.42;;;;;;;;;;4991857;28;20309;-63
2024/01/22 02:54:08;;;;;;;11.30;2.92;;;;;;;;;;4975971;28;20469;-63
2024/01/22 02:56:33;;;;;;;7.63;2.50;;;;;;;;;;4980796;28;20013;-63
2024/01/22 02:58:59;;;;;;;6.57;2.50;;;;;;;;;;4983688;28;20029;-64
2024/01/22 03:01:24;;;;;;;7.43;2.50;;;;;;;;;;4983603;28;20023;-64
2024/01/22 03:03:49;;;;;;;7.17;2.53;;;;;;;;;;4983793;28;20315;-63
2024/01/22 03:06:14;;;;;;;9.65;2.70;;;;;;;;;;4981946;28;20402;-63
2024/01/22 03:08:39;;;;;;;6.57;2.47;;;;;;;;;;4986179;28;20046;-63
2024/01/22 03:11:05;;;;;;;11.00;2.70;;;;;;;;;;4981772;28;20118;-64
2024/01/22 03:13:30;;;;;;;9.90;2.67;;;;;;;;;;4996648;28;20640;-63
2024/01/22 03:15:55;;;;;;;12.43;2.83;;;;;;;;;;4989312;28;20021;-63
2024/01/22 03:18:20;;;;;;;8.93;2.53;;;;;;;;;;4983892;28;20026;-63
2024/01/22 03:20:45;;;;;;;8.75;2.80;;;;;;;;;;4994811;28;20493;-62
2024/01/22 03:23:11;;;;;;;8.05;2.35;;;;;;;;;;4999296;28;20023;-64
2024/01/22 03:25:36;;;;;;;11.87;3.13;;;;;;;;;;4994805;28;20021;-64
2024/01/22 03:28:01;;;;;;;5.60;2.23;;;;;;;;;;4993948;28;20308;-64
2024/01/22 03:30:26;;;;;;;9.47;2.43;;;;;;;;;;4984663;28;20430;-63
2024/01/22 03:32:52;;;;;;;7.73;2.60;;;;;;;;;;4995684;28;20029;-63
2024/01/22 03:35:17;;;;;;;6.22;2.50;;;;;;;;;;4986174;28;20389;-64
2024/01/22 03:37:42;;;;;;;8.30;2.40;;;;;;;;;;4991707;28;20025;-63
2024/01/22 03:40:08;;;;;;;7.23;2.23;;;;;;;;;;4998161;28;20081;-64
2024/01/22 03:42:33;;;;;;;8.60;2.42;;;;;;;;;;4994975;28;20308;-63
2024/01/22 03:44:58;;;;;;;9.52;2.58;;;;;;;;;;4994048;28;20115;-64
2024/01/22 03:47:23;;;;;;;4.83;2.03;;;;;;;;;;4996345;28;20033;-63
2024/01/22 03:49:49;;;;;;;8.20;2.80;;;;;;;;;;4991797;28;20269;-63
2024/01/22 03:52:14;;;;;;;7.33;2.70;;;;;;;;;;4999074;28;20462;-61
2024/01/22 03:54:39;;;;;;;6.43;2.17;;;;;;;;;;4985618;28;20019;-62
2024/01/22 03:57:07;;;;;;;5.17;1.97;;;;;;;;;;4994098;28;20496;-61
2024/01/22 03:59:33;;;;;;;5.47;2.25;;;;;;;;;;5004173;28;20407;-62
2024/01/22 04:01:58;;;;;;;8.15;2.58;;;;;;;;;;4992434;28;20066;-63
2024/01/22 04:04:23;;;;;;;5.27;2.20;;;;;;;;;;4999983;28;20060;-62
2024/01/22 04:06:49;;;;;;;6.90;2.17;;;;;;;;;;4991108;28;20449;-63
2024/01/22 04:09:14;;;;;;;4.63;2.20;;;;;;;;;;4999107;28;20026;-63
2024/01/22 04:11:39;;;;;;;7.13;2.70;;;;;;;;;;4995208;28;20466;-62
2024/01/22 04:14:04;;;;;;;8.25;2.60;;;;;;;;;;4996967;28;20061;-63
2024/01/22 04:16:30;;;;;;;7.97;2.60;;;;;;;;;;4998041;28;20462;-61
2024/01/22 04:18:55;;;;;;;7.53;2.00;;;;;;;;;;4988445;28;20454;-62
2024/01/22 04:21:22;;;;;;;6.43;2.23;;;;;;;;;;4989754;28;20767;-61
2024/01/22 04:23:47;;;;;;;5.45;2.05;;;;;;;;;;4999915;28;20124;-61
2024/01/22 04:26:12;;;;;;;4.30;2.03;;;;;;;;;;4995146;28;20101;-61
2024/01/22 04:28:37;;;;;;;5.45;2.30;;;;;;;;;;4990641;28;20014;-62
2024/01/22 04:31:02;;;;;;;5.03;2.07;;;;;;;;;;4996885;28;20025;-61
2024/01/22 04:33:28;;;;;;;6.85;2.05;;;;;;;;;;5008691;28;20272;-62
2024/01/22 04:35:53;;;;;;;6.50;2.10;;;;;;;;;;4996870;28;20021;-62
2024/01/22 04:38:18;;;;;;;8.90;2.30;;;;;;;;;;5004646;28;20304;-62
2024/01/22 04:40:43;;;;;;;7.53;2.60;;;;;;;;;;4990840;28;20061;-62
2024/01/22 04:43:08;;;;;;;7.27;2.37;;;;;;;;;;4990799;28;20269;-62
2024/01/22 04:45:34;;;;;;;4.60;2.20;;;;;;;;;;4990307;28;20026;-62
2024/01/22 04:47:59;;;;;;;6.80;2.28;;;;;;;;;;4994978;28;20059;-62
2024/01/22 04:50:24;;;;;;;5.50;2.10;;;;;;;;;;4997515;28;20061;-62
2024/01/22 04:52:49;;;;;;;5.43;2.20;;;;;;;;;;4999467;28;20018;-63
2024/01/22 04:55:15;;;;;;;6.27;2.37;;;;;;;;;;4990411;28;20491;-62
2024/01/22 04:57:40;;;;;;;6.20;2.10;;;;;;;;;;4995970;28;20080;-62
2024/01/22 05:00:05;;;;;;;8.27;2.50;;;;;;;;;;4987047;28;20022;-61
2024/01/22 05:02:32;;;;;;;6.70;1.95;;;;;;;;;;4994912;28;20308;-61
2024/01/22 05:04:58;;;;;;;5.95;2.42;;;;;;;;;;5002254;28;20537;-61
2024/01/22 05:07:24;;;;;;;3.13;1.90;;;;;;;;;;4985588;28;20142;-61
2024/01/22 05:09:49;;;;;;;4.53;2.15;;;;;;;;;;4988700;28;20149;-62
2024/01/22 05:12:14;;;;;;;8.18;2.30;;;;;;;;;;4994959;28;20025;-62
2024/01/22 05:14:40;;;;;;;6.70;2.23;;;;;;;;;;4986678;28;20133;-63
2024/01/22 05:17:06;;;;;;;7.05;2.10;;;;;;;;;;4986848;28;20374;-64
2024/01/22 05:19:31;;;;;;;7.38;2.20;;;;;;;;;;4999462;28;20482;-63
2024/01/22 05:21:56;;;;;;;8.48;2.30;;;;;;;;;;4988730;28;20021;-62
2024/01/22 05:24:22;;;;;;;7.43;2.40;;;;;;;;;;4991286;28;20412;-63
2024/01/22 05:26:47;;;;;;;7.73;2.20;;;;;;;;;;4999272;28;20027;-63
2024/01/22 05:29:12;;;;;;;6.57;2.20;;;;;;;;;;4984107;28;20497;-62
2024/01/22 05:31:37;;;;;;;3.78;2.00;;;;;;;;;;4983547;28;20022;-61
2024/01/22 05:34:02;;;;;;;6.93;2.10;;;;;;;;;;4989794;28;20030;-61
2024/01/22 05:36:27;;;;;;;9.73;2.37;;;;;;;;;;4976972;28;20135;-61
2024/01/22 05:38:53;;;;;;;5.00;2.00;;;;;;;;;;4992248;28;20037;-62
2024/01/22 05:41:18;;;;;;;7.18;2.20;;;;;;;;;;4990316;28;20265;-61
2024/01/22 05:43:43;;;;;;;4.20;1.90;;;;;;;;;;4996554;28;20014;-62
2024/01/22 05:46:08;;;;;;;7.50;1.97;;;;;;;;;;4994378;28;20017;-61
2024/01/22 05:48:33;;;;;;;5.33;1.90;;;;;;;;;;4987570;28;20053;-61
2024/01/22 05:50:59;;;;;;;5.65;1.90;;;;;;;;;;4983926;28;20046;-61
2024/01/22 05:53:24;;;;;;;6.50;1.87;;;;;;;;;;4995132;28;20030;-62
2024/01/22 05:55:49;;;;;;;4.27;1.83;;;;;;;;;;4980720;28;20026;-62
2024/01/22 05:58:16;;;;;;;5.63;1.87;;;;;;;;;;4989840;28;20037;-62
2024/01/22 06:00:42;;;;;;;7.53;1.83;;;;;;;;;;4983848;28;20029;-62
2024/01/22 06:03:07;;;;;;;5.20;1.87;;;;;;;;;;4979695;28;20026;-63
2024/01/22 06:05:32;;;;;;;8.60;2.10;;;;;;;;;;4978121;28;20026;-61
2024/01/22 06:07:58;;;;;;;8.95;2.00;;;;;;;;;;4972171;28;20026;-62
2024/01/22 06:10:23;;;;;;;8.13;2.22;;;;;;;;;;4993250;28;20096;-62
2024/01/22 06:12:48;;;;;;;5.90;2.30;;;;;;;;;;4996123;28;20064;-63
2024/01/22 06:15:14;;;;;;;5.95;1.95;;;;;;;;;;4991421;28;20040;-62
2024/01/22 06:17:39;;;;;;;9.55;2.03;;;;;;;;;;4977982;28;20401;-62
2024/01/22 06:20:05;;;;;;;5.88;2.17;;;;;;;;;;4991699;28;20042;-62
2024/01/22 06:22:30;;;;;;;6.15;2.25;;;;;;;;;;4988717;28;20021;-62
2024/01/22 06:24:55;;;;;;;6.45;2.22;;;;;;;;;;4987121;28;20014;-62
2024/01/22 06:27:21;;;;;;;5.47;2.03;;;;;;;;;;4985359;28;20151;-63
2024/01/22 06:29:46;;;;;;;8.85;2.50;;;;;;;;;;4990545;28;20328;-63
2024/01/22 06:32:12;;;;;;;11.63;2.50;;;;;;;;;;4986298;28;20018;-62
2024/01/22 06:34:37;;;;;;;7.07;2.20;;;;;;;;;;4980755;28;20323;-62
2024/01/22 06:37:03;;;;;;;6.90;2.30;;;;;;;;;;4989648;28;20053;-62
2024/01/22 06:39:28;;;;;;;6.75;2.13;;;;;;;;;;4987515;28;20296;-62
2024/01/22 06:41:53;;;;;;;6.53;2.33;;;;;;;;;;4999286;28;20402;-61
2024/01/22 06:44:18;;;;;;;5.43;1.90;;;;;;;;;;4997714;28;20072;-62
2024/01/22 06:46:43;;;;;;;9.47;2.33;;;;;;;;;;4989139;28;20029;-63
2024/01/22 06:49:08;;;;;;;6.80;2.20;;;;;;;;;;4991010;28;20200;-63
2024/01/22 06:51:34;;;;;;;4.67;1.90;;;;;;;;;;4983178;28;20046;-62
2024/01/22 06:53:59;;;;;;;4.00;1.53;;;;;;;;;;4978116;28;20014;-63
2024/01/22 06:56:24;;;;;;;6.70;1.90;;;;;;;;;;4988359;28;20040;-62
2024/01/22 06:58:49;;;;;;;6.23;1.80;;;;;;;;;;4982165;28;21918;-62
2024/01/22 07:01:15;;;;;;;7.27;1.90;;;;;;;;;;4981673;28;20332;-62
2024/01/22 07:03:40;;;;;;;5.40;1.90;;;;;;;;;;4983603;28;20328;-63
2024/01/22 07:06:05;;;;;;;4.23;1.60;;;;;;;;;;4979410;28;20653;-62
2024/01/22 07:08:31;;;;;;;7.75;1.70;;;;;;;;;;4986994;28;20036;-61
2024/01/22 07:10:57;;;;;;;3.33;1.63;;;;;;;;;;4982194;28;20738;-61
2024/01/22 07:13:23;;;;;;;7.05;1.67;;;;;;;;;;4998291;28;20036;-62
2024/01/22 07:15:48;;;;;;;2.97;1.33;;;;;;;;;;5000212;28;20136;-62
2024/01/22 07:18:13;;;;;;;2.83;1.60;;;;;;;;;;5002592;28;20041;-62
2024/01/22 07:20:38;;;;;;;3.50;1.50;;;;;;;;;;5001719;28;20293;-62
2024/01/22 07:23:04;;;;;;;2.03;1.50;;;;;;;;;;4997606;28;20521;-61
2024/01/22 07:25:34;;;;;;;6.43;1.90;;;;;;;;;;4999839;28;20025;-61
2024/01/22 07:27:59;;;;;;;8.35;1.90;;;;;;;;;;4995350;28;20096;-61
2024/01/22 07:30:24;;;;;;;9.18;2.05;;;;;;;;;;5001773;28;20054;-63
2024/01/22 07:32:49;;;;;;;9.13;2.10;;;;;;;;;;5004486;28;20082;-62
2024/01/22 07:35:15;;;;;;;7.63;2.07;;;;;;;;;;4998427;28;20117;-61
2024/01/22 07:37:42;;;;;;;7.13;1.95;;;;;;;;;;4997679;28;20068;-62
2024/01/22 07:40:09;;;;;;;8.93;2.30;;;;;;;;;;5002437;28;20326;-61
2024/01/22 07:42:35;;;;;;;9.48;2.33;;;;;;;;;;5006405;28;20118;-62
2024/01/22 07:45:01;;;;;;;11.45;2.40;;;;;;;;;;5001471;28;20461;-63
2024/01/22 07:47:26;;;;;;;10.45;2.60;;;;;;;;;;4998219;28;20018;-63
2024/01/22 07:49:51;;;;;;;8.75;2.03;;;;;;;;;;5000512;28;20022;-62
2024/01/22 07:52:16;;;;;;;11.57;2.53;;;;;;;;;;4994447;28;20078;-62
2024/01/22 07:54:42;;;;;;;13.20;2.23;;;;;;;;;;4993749;28;20665;-63
2024/01/22 07:57:10;;;;;;;11.80;2.53;;;;;;;;;;4993247;28;20729;-63
2024/01/22 07:59:37;;;;;;;13.15;2.60;;;;;;;;;;4995378;28;20312;-63
2024/01/22 08:02:02;;;;;;;11.38;2.78;;;;;;;;;;4994954;28;20061;-65
2024/01/22 08:04:27;;;;;;;13.47;2.37;;;;;;;;;;4996265;28;20048;-62
2024/01/22 08:06:53;;;;;;;16.67;2.80;;;;;;;;;;4999622;28;20272;-62
2024/01/22 08:09:18;;;;;;;15.63;3.72;;;;;;;;;;4999338;28;20021;-63
2024/01/22 08:11:43;;;;;;;14.30;2.33;;;;;;;;;;4994396;28;20018;-63
2024/01/22 08:14:08;;;;;;;16.83;2.77;;;;;;;;;;4975545;28;20017;-63
2024/01/22 08:16:33;;;;;;;15.47;3.50;;;;;;;;;;4982160;28;20617;-63
2024/01/22 08:18:58;;;;;;;15.03;2.67;;;;;;;;;;4980418;28;20284;-63
2024/01/22 08:21:24;;;;;;;17.23;3.30;;;;;;;;;;4979069;28;20076;-63
2024/01/22 08:23:49;;;;;;;18.07;2.87;;;;;;;;;;4976529;28;20289;-63
2024/01/22 08:26:14;;;;;;;17.57;3.00;;;;;;;;;;4978638;28;20026;-63
2024/01/22 08:28:39;;;;;;;18.93;3.17;;;;;;;;;;4972855;28;20084;-62
2024/01/22 08:31:05;;;;;;;18.30;3.67;;;;;;;;;;4975899;28;20375;-63
2024/01/22 08:33:30;;;;;;;11.82;2.63;;;;;;;;;;4974432;28;20302;-61
2024/01/22 08:35:56;;;;;;;17.23;2.90;;;;;;;;;;4976158;28;20355;-62
2024/01/22 08:38:21;;;;;;;13.23;2.30;;;;;;;;;;4980186;28;20048;-63
2024/01/22 08:40:46;;;;;;;15.27;2.53;;;;;;;;;;4979492;28;20112;-63
2024/01/22 08:43:11;;;;;;;9.00;2.30;;;;;;;;;;4977511;28;20267;-64
2024/01/22 08:45:36;;;;;;;12.20;2.57;;;;;;;;;;4974794;28;20080;-62
2024/01/22 08:48:02;;;;;;;16.83;3.25;;;;;;;;;;4978125;28;20368;-62
2024/01/22 08:50:27;;;;;;;11.85;2.40;;;;;;;;;;4983679;28;20153;-62
2024/01/22 08:52:55;;;;;;;15.20;3.17;;;;;;;;;;5004608;28;20100;-62
2024/01/22 08:55:22;;;;;;;13.05;2.67;;;;;;;;;;4992213;28;20902;-62
2024/01/22 08:57:48;;;;;;;18.20;3.22;;;;;;;;;;4998139;28;20451;-62
2024/01/22 09:00:14;;;;;;;17.20;3.25;;;;;;;;;;4988179;28;20475;-61
2024/01/22 09:02:40;;;;;;;16.80;3.38;;;;;;;;;;5005269;28;20028;-62
2024/01/22 09:05:09;;;;;;;18.33;3.30;;;;;;;;;;4984645;28;20026;-61
2024/01/22 09:07:34;;;;;;;23.23;3.45;;;;;;;;;;5001153;28;20053;-61
2024/01/22 09:10:00;;;;;;;19.63;3.15;;;;;;;;;;4976756;28;20052;-62
2024/01/22 09:12:25;;;;;;;22.13;4.63;;;;;;;;;;4992723;28;20034;-62
2024/01/22 09:14:50;;;;;;;21.07;4.20;;;;;;;;;;5004144;28;20069;-62
2024/01/22 09:17:16;;;;;;;16.70;3.08;;;;;;;;;;4999383;28;20269;-62
2024/01/22 09:19:41;;;;;;;19.53;3.57;;;;;;;;;;4996047;28;20029;-61
2024/01/22 09:22:06;;;;;;;19.93;3.30;;;;;;;;;;4995065;28;20053;-60
2024/01/22 09:24:31;;;;;;;16.20;2.80;;;;;;;;;;4996741;28;20026;-60
2024/01/22 09:26:56;;;;;;;22.67;3.73;;;;;;;;;;4996187;28;20023;-61
2024/01/22 09:29:21;;;;;;;16.77;3.17;;;;;;;;;;4997994;28;20496;-62
2024/01/22 09:31:47;;;;;;;21.23;4.10;;;;;;;;;;4999768;28;20018;-61
2024/01/22 09:34:12;;;;;;;17.00;3.33;;;;;;;;;;4996013;28;20363;-61
2024/01/22 09:36:37;;;;;;;18.97;4.53;;;;;;;;;;4989862;28;20023;-61
2024/01/22 09:39:03;;;;;;;21.03;3.33;;;;;;;;;;4989148;28;20040;-61
2024/01/22 09:41:28;;;;;;;19.00;3.47;;;;;;;;;;4988669;28;20064;-60
2024/01/22 09:43:54;;;;;;;18.77;3.53;;;;;;;;;;4987632;28;20030;-61
2024/01/22 09:46:20;;;;;;;20.15;3.10;;;;;;;;;;4994574;28;20592;-61
2024/01/22 09:48:48;;;;;;;14.88;2.95;;;;;;;;;;4984276;28;20034;-59
2024/01/22 09:51:13;;;;;;;18.00;3.08;;;;;;;;;;4973699;28;20124;-60
2024/01/22 09:53:41;;;;;;;16.08;2.67;;;;;;;;;;4977524;28;20018;-60
2024/01/22 09:56:07;;;;;;;18.90;3.42;;;;;;;;;;4977017;28;20760;-60
2024/01/22 09:58:37;;;;;;;15.48;2.60;;;;;;;;;;4979841;28;20031;-60
2024/01/22 10:01:03;;;;;;;19.35;3.05;;;;;;;;;;4977349;28;20077;-60
2024/01/22 10:03:32;;;;;;;16.52;2.63;;;;;;;;;;4979751;28;20504;-61
2024/01/22 10:05:58;;;;;;;13.80;2.60;;;;;;;;;;4979786;28;20385;-60
2024/01/22 10:08:24;;;;;;;10.85;2.40;;;;;;;;;;4980459;28;20018;-60
2024/01/22 10:10:49;;;;;;;16.13;2.50;;;;;;;;;;4974521;28;20385;-60
2024/01/22 10:13:14;;;;;;;19.17;3.22;;;;;;;;;;4973266;28;20021;-60
2024/01/22 10:15:39;;;;;;;16.35;2.75;;;;;;;;;;4974960;28;20726;-59
2024/01/22 10:18:15;;;;;;;16.57;2.53;;;;;;;;;;4980519;28;20025;-60
2024/01/22 10:20:41;;;;;;;19.90;3.25;;;;;;;;;;4976589;28;20030;-60
2024/01/22 10:23:07;;;;;;;15.60;2.50;;;;;;;;;;4982311;28;20076;-59
2024/01/22 10:25:33;;;;;;;17.15;2.80;;;;;;;;;;4973286;28;20125;-60
2024/01/22 10:28:07;;;;;;;16.85;2.80;;;;;;;;;;4977159;28;20044;-61
2024/01/22 10:30:33;;;;;;;18.60;2.90;;;;;;;;;;4971046;28;20054;-61
2024/01/22 10:33:08;;;;;;;20.13;3.38;;;;;;;;;;4975396;28;20036;-61
2024/01/22 10:35:33;;;;;;;19.15;2.97;;;;;;;;;;4978389;28;20026;-59
2024/01/22 10:38:05;;;;;;;13.67;2.60;;;;;;;;;;4976399;28;20006;-59
2024/01/22 10:40:31;;;;;;;14.82;2.67;;;;;;;;;;4977630;28;20038;-59
2024/01/22 10:42:56;;;;;;;17.10;3.73;;;;;;;;;;4982382;28;20538;-58
2024/01/22 10:45:22;;;;;;;20.23;3.30;;;;;;;;;;4972091;28;20030;-59
2024/01/22 10:47:48;;;;;;;19.92;3.58;;;;;;;;;;4978032;28;20025;-60
2024/01/22 10:50:13;;;;;;;18.58;3.28;;;;;;;;;;4980236;28;20124;-60
2024/01/22 10:52:38;;;;;;;24.83;3.85;;;;;;;;;;4978782;28;20023;-60
2024/01/22 10:55:04;;;;;;;20.08;3.40;;;;;;;;;;4975473;28;20024;-60
2024/01/22 10:57:35;;;;;;;22.58;4.05;;;;;;;;;;4971925;28;20054;-60
2024/01/22 11:00:02;;;;;;;24.73;4.38;;;;;;;;;;4980919;28;20026;-60
2024/01/22 11:02:32;;;;;;;20.45;3.95;;;;;;;;;;4983014;28;20046;-60
2024/01/22 11:05:01;;;;;;;25.00;4.40;;;;;;;;;;4975906;28;20033;-60
2024/01/22 11:07:28;;;;;;;24.55;4.68;;;;;;;;;;4976231;28;20018;-60
2024/01/22 11:09:54;;;;;;;24.00;4.90;;;;;;;;;;4979657;28;20094;-59
2024/01/22 11:12:21;;;;;;;25.30;4.85;;;;;;;;;;4976289;28;20023;-59
2024/01/22 11:14:46;;;;;;;27.92;5.65;;;;;;;;;;4976104;28;20553;-59
2024/01/22 11:17:13;;;;;;;28.55;4.97;;;;;;;;;;4974674;28;20067;-59
2024/01/22 11:19:38;;;;;;;27.42;5.53;;;;;;;;;;4975790;28;20513;-59
2024/01/22 11:22:19;;;;;;;30.38;5.43;;;;;;;;;;4977326;28;20101;-60
2024/01/22 11:25:00;;;;;;;26.52;5.20;;;;;;;;;;4978765;28;20033;-61
2024/01/22 11:27:36;;;;;;;28.75;5.88;;;;;;;;;;4977791;28;20089;-60
2024/01/22 11:30:21;;;;;;;26.15;5.30;;;;;;;;;;4976715;28;20026;-60
2024/01/22 11:32:46;;;;;;;27.85;5.22;;;;;;;;;;4972603;28;20528;-60
2024/01/22 11:35:12;;;;;;;31.85;6.30;;;;;;;;;;4976575;28;20022;-61
2024/01/22 11:37:37;;;;;;;27.27;5.30;;;;;;;;;;5003714;28;20028;-61
2024/01/22 11:40:04;;;;;;;29.20;5.47;;;;;;;;;;5001638;28;20068;-61
2024/01/22 11:42:29;;;;;;;32.83;5.93;;;;;;;;;;4991658;28;20129;-61
2024/01/22 11:44:55;;;;;;;29.67;5.35;;;;;;;;;;4989520;28;20109;-61
2024/01/22 11:47:21;;;;;;;35.10;6.35;;;;;;;;;;4998190;28;20421;-61
2024/01/22 11:49:46;;;;;;;37.35;7.13;;;;;;;;;;4986514;28;20018;-61
2024/01/22 11:52:12;;;;;;;29.63;6.73;;;;;;;;;;4998306;28;20060;-61
2024/01/22 11:54:38;;;;;;;28.95;5.55;;;;;;;;;;5004235;28;20359;-61
2024/01/22 11:57:04;;;;;;;32.45;6.53;;;;;;;;;;4982147;28;20190;-61
2024/01/22 11:59:29;;;;;;;30.58;5.40;;;;;;;;;;4991253;28;20374;-61
2024/01/22 12:02:09;;;;;;;30.00;5.60;;;;;;;;;;5001614;28;20025;-61
2024/01/22 12:04:34;;;;;;;25.35;5.10;;;;;;;;;;4992104;28;20030;-61
2024/01/22 12:06:59;;;;;;;28.47;5.90;;;;;;;;;;4986663;28;20025;-59
2024/01/22 12:09:24;;;;;;;28.00;4.80;;;;;;;;;;5004281;28;20025;-61
2024/01/22 12:11:50;;;;;;;23.45;4.63;;;;;;;;;;4995185;28;20018;-60
2024/01/22 12:14:16;;;;;;;28.33;5.15;;;;;;;;;;4979246;28;20026;-60
2024/01/22 12:16:41;;;;;;;25.17;4.55;;;;;;;;;;4984178;28;20605;-60
2024/01/22 12:19:12;;;;;;;26.70;4.85;;;;;;;;;;4982410;28;20022;-60
2024/01/22 12:21:39;;;;;;;25.70;4.90;;;;;;;;;;4977347;28;20156;-61
2024/01/22 12:24:14;;;;;;;26.85;5.57;;;;;;;;;;4983107;28;20022;-61
2024/01/22 12:26:40;;;;;;;22.42;4.85;;;;;;;;;;4984901;28;20069;-61
2024/01/22 12:29:05;;;;;;;25.70;4.85;;;;;;;;;;4980378;28;20072;-60
2024/01/22 12:31:30;;;;;;;21.80;4.30;;;;;;;;;;4976845;28;20109;-61
2024/01/22 12:34:08;;;;;;;22.80;4.10;;;;;;;;;;4981966;28;20901;-61
2024/01/22 12:36:33;;;;;;;26.65;5.07;;;;;;;;;;4975096;28;20030;-60
2024/01/22 12:39:02;;;;;;;26.43;4.60;;;;;;;;;;4992955;28;20030;-61
2024/01/22 12:41:28;;;;;;;24.70;4.57;;;;;;;;;;4995744;28;20038;-61
2024/01/22 12:43:59;;;;;;;22.10;4.60;;;;;;;;;;4993014;28;20358;-61
2024/01/22 12:46:24;;;;;;;24.25;4.25;;;;;;;;;;5001511;28;20034;-61
2024/01/22 12:48:50;;;;;;;25.73;4.70;;;;;;;;;;5007143;28;20017;-61
2024/01/22 12:51:18;;;;;;;28.70;4.97;;;;;;;;;;4996870;28;20173;-60
2024/01/22 12:53:44;;;;;;;22.25;4.40;;;;;;;;;;4988453;28;20152;-61
2024/01/22 12:56:09;;;;;;;25.40;4.72;;;;;;;;;;4983295;28;20025;-61
2024/01/22 12:58:38;;;;;;;26.33;5.30;;;;;;;;;;4977131;28;20026;-60
2024/01/22 13:01:06;;;;;;;22.40;4.20;;;;;;;;;;4983775;28;20018;-61
2024/01/22 13:03:31;;;;;;;27.88;5.22;;;;;;;;;;5010296;28;20152;-60
2024/01/22 13:05:56;;;;;;;25.07;4.63;;;;;;;;;;4991670;28;20105;-60
2024/01/22 13:08:21;;;;;;;28.33;5.18;;;;;;;;;;4992076;28;20650;-61
2024/01/22 13:10:47;;;;;;;26.90;5.47;;;;;;;;;;4990062;28;20030;-61
2024/01/22 13:13:13;;;;;;;29.23;5.40;;;;;;;;;;4990983;28;20026;-61
2024/01/22 13:15:38;;;;;;;25.02;5.22;;;;;;;;;;4998305;28;20308;-60
2024/01/22 13:18:04;;;;;;;26.25;5.15;;;;;;;;;;4997854;28;20049;-61
2024/01/22 13:20:29;;;;;;;22.70;4.65;;;;;;;;;;4997633;28;20034;-61
2024/01/22 13:22:54;;;;;;;27.92;5.60;;;;;;;;;;5002278;28;20381;-61
2024/01/22 13:25:20;;;;;;;23.85;4.95;;;;;;;;;;4999028;28;20046;-61
2024/01/22 13:27:49;;;;;;;27.95;5.20;;;;;;;;;;4988954;28;20018;-62
2024/01/22 13:30:14;;;;;;;23.10;4.10;;;;;;;;;;4990501;28;20095;-61
2024/01/22 13:32:39;;;;;;;24.20;4.68;;;;;;;;;;4994041;28;20461;-62
2024/01/22 13:35:05;;;;;;;27.30;5.20;;;;;;;;;;5000698;28;20038;-60
2024/01/22 13:37:30;;;;;;;24.63;4.03;;;;;;;;;;4991585;28;20300;-62
2024/01/22 13:39:56;;;;;;;25.25;4.30;;;;;;;;;;5001864;28;20030;-62
2024/01/22 13:42:21;;;;;;;24.58;4.72;;;;;;;;;;4997587;28;20033;-62
2024/01/22 13:44:52;;;;;;;23.58;4.05;;;;;;;;;;5000858;28;20022;-61
2024/01/22 13:47:19;;;;;;;22.25;5.00;;;;;;;;;;5008446;28;20066;-61
2024/01/22 13:49:45;;;;;;;23.73;4.63;;;;;;;;;;5009508;28;20038;-61
2024/01/22 13:52:11;;;;;;;23.35;5.18;;;;;;;;;;5008949;28;20057;-61
2024/01/22 13:54:36;;;;;;;27.15;5.38;;;;;;;;;;5008078;28;20017;-62
2024/01/22 13:57:01;;;;;;;26.03;4.60;;;;;;;;;;5007414;28;20048;-62
2024/01/22 13:59:27;;;;;;;22.98;4.88;;;;;;;;;;4983357;28;20765;-61
2024/01/22 14:01:52;;;;;;;27.00;4.88;;;;;;;;;;4977904;28;20880;-61
2024/01/22 14:04:17;;;;;;;23.17;4.60;;;;;;;;;;4979267;28;20474;-61
2024/01/22 14:06:43;;;;;;;23.30;4.77;;;;;;;;;;4975052;28;20520;-62
2024/01/22 14:09:09;;;;;;;21.83;4.32;;;;;;;;;;4978855;28;20029;-61
2024/01/22 14:11:35;;;;;;;19.40;3.83;;;;;;;;;;4979485;28;20080;-61
2024/01/22 14:14:00;;;;;;;25.80;5.20;;;;;;;;;;4977173;28;20608;-61
2024/01/22 14:16:25;;;;;;;22.98;3.92;;;;;;;;;;4976849;28;20097;-62
2024/01/22 14:18:51;;;;;;;27.00;6.13;;;;;;;;;;4981346;28;20116;-62
2024/01/22 14:21:16;;;;;;;23.00;4.05;;;;;;;;;;4977041;28;20031;-60
2024/01/22 14:23:41;;;;;;;25.73;4.10;;;;;;;;;;4975734;28;20116;-61
2024/01/22 14:26:07;;;;;;;23.33;4.80;;;;;;;;;;4976096;28;20031;-61
2024/01/22 14:28:32;;;;;;;24.60;4.88;;;;;;;;;;4978258;28;20300;-61